createdAt,value
2022-12-25T00:00:39.615Z,11.00
2022-12-25T00:03:06.907Z,10.90
2022-12-25T00:05:34.202Z,10.90
2022-12-25T00:08:00.971Z,10.90
2022-12-25T00:10:27.682Z,10.90
2022-12-25T00:12:54.424Z,10.90
2022-12-25T00:15:21.175Z,10.90
2022-12-25T00:17:47.995Z,10.90
2022-12-25T00:20:14.863Z,11.00
2022-12-25T00:22:41.650Z,11.00
2022-12-25T00:25:08.713Z,11.00
2022-12-25T00:27:37.733Z,11.00
2022-12-25T00:30:07.783Z,11.00
2022-12-25T00:32:37.677Z,11.00
2022-12-25T00:35:05.189Z,11.00
2022-12-25T00:37:31.966Z,11.00
2022-12-25T00:39:58.721Z,11.00
2022-12-25T00:42:27.405Z,10.90
2022-12-25T00:44:54.161Z,10.90
2022-12-25T00:47:21.007Z,10.90
2022-12-25T00:49:47.965Z,10.80
2022-12-25T00:52:15.069Z,10.70
2022-12-25T00:54:41.878Z,10.70
2022-12-25T00:57:08.578Z,10.70
2022-12-25T00:59:35.351Z,10.60
2022-12-25T01:02:22.205Z,10.60
2022-12-25T01:04:50.307Z,10.60
2022-12-25T01:07:17.394Z,10.60
2022-12-25T01:10:03.651Z,10.70
2022-12-25T01:12:34.518Z,10.70
2022-12-25T01:15:01.240Z,10.70
2022-12-25T01:17:27.993Z,10.70
2022-12-25T01:19:54.704Z,10.70
2022-12-25T01:22:21.480Z,10.80
2022-12-25T01:24:48.218Z,10.80
2022-12-25T01:27:14.951Z,10.80
2022-12-25T01:29:41.770Z,10.80
2022-12-25T01:32:08.627Z,10.80
2022-12-25T01:34:35.853Z,10.80
2022-12-25T01:37:02.716Z,10.70
2022-12-25T01:39:29.481Z,10.70
2022-12-25T01:41:56.219Z,10.70
2022-12-25T01:44:35.357Z,10.70
2022-12-25T01:47:05.283Z,10.70
2022-12-25T01:49:33.037Z,10.60
2022-12-25T01:52:24.174Z,10.60
2022-12-25T01:54:57.054Z,10.60
2022-12-25T01:57:29.168Z,10.60
2022-12-25T01:59:57.447Z,10.60
2022-12-25T02:02:24.277Z,10.60
2022-12-25T02:04:54.410Z,10.60
2022-12-25T02:07:23.095Z,10.60
2022-12-25T02:09:49.993Z,10.60
2022-12-25T02:12:26.798Z,10.60
2022-12-25T02:15:01.153Z,10.60
2022-12-25T02:18:01.607Z,10.60
2022-12-25T02:20:52.038Z,10.60
2022-12-25T02:23:34.690Z,10.60
2022-12-25T02:26:29.529Z,10.60
2022-12-25T02:28:59.254Z,10.70
2022-12-25T02:31:30.704Z,10.70
2022-12-25T02:34:09.736Z,10.70
2022-12-25T02:36:50.264Z,10.70
2022-12-25T02:40:09.437Z,10.60
2022-12-25T02:42:59.931Z,10.70
2022-12-25T02:45:53.540Z,10.70
2022-12-25T02:48:40.157Z,10.70
2022-12-25T02:51:28.854Z,10.70
2022-12-25T02:54:14.911Z,10.70
2022-12-25T02:57:01.056Z,10.70
2022-12-25T02:59:46.881Z,10.70
2022-12-25T03:02:33.187Z,10.70
2022-12-25T03:05:18.775Z,10.70
2022-12-25T03:07:45.481Z,10.70
2022-12-25T03:10:31.337Z,10.70
2022-12-25T03:13:04.113Z,10.70
2022-12-25T03:15:49.151Z,10.70
2022-12-25T03:18:18.174Z,10.80
2022-12-25T03:21:03.490Z,10.80
2022-12-25T03:23:50.441Z,10.80
2022-12-25T03:26:35.919Z,10.80
2022-12-25T03:29:02.749Z,10.80
2022-12-25T03:31:33.631Z,10.80
2022-12-25T03:34:41.869Z,10.80
2022-12-25T03:37:48.634Z,10.80
2022-12-25T03:40:56.417Z,10.80
2022-12-25T03:44:02.146Z,10.80
2022-12-25T03:46:50.862Z,10.80
2022-12-25T03:49:43.931Z,10.80
2022-12-25T03:52:30.989Z,10.90
2022-12-25T03:55:16.504Z,10.90
2022-12-25T03:58:01.513Z,10.90
2022-12-25T04:00:46.807Z,10.90
2022-12-25T04:03:32.348Z,10.90
2022-12-25T04:06:17.827Z,10.90
2022-12-25T04:09:03.352Z,10.90
2022-12-25T04:11:48.585Z,10.90
2022-12-25T04:14:34.242Z,10.90
2022-12-25T04:17:19.522Z,10.90
2022-12-25T04:20:04.625Z,10.90
2022-12-25T04:22:50.155Z,10.90
2022-12-25T04:25:35.653Z,10.90
2022-12-25T04:28:21.873Z,10.90
2022-12-25T04:31:07.481Z,10.90
2022-12-25T04:33:52.811Z,10.90
2022-12-25T04:36:19.575Z,10.90
2022-12-25T04:38:46.322Z,10.90
2022-12-25T04:41:13.378Z,10.90
2022-12-25T04:43:40.276Z,10.90
2022-12-25T04:46:07.111Z,11.00
2022-12-25T04:48:34.883Z,10.90
2022-12-25T04:51:21.672Z,10.90
2022-12-25T04:53:48.866Z,10.90
2022-12-25T04:56:15.874Z,10.90
2022-12-25T04:58:42.935Z,11.00
2022-12-25T05:01:09.795Z,10.90
2022-12-25T05:03:36.611Z,10.90
2022-12-25T05:06:03.689Z,10.90
2022-12-25T05:08:30.957Z,10.90
2022-12-25T05:10:57.747Z,10.90
2022-12-25T05:13:24.696Z,10.90
2022-12-25T05:15:51.756Z,11.00
2022-12-25T05:18:18.567Z,10.90
2022-12-25T05:20:52.500Z,10.90
2022-12-25T05:23:19.155Z,10.90
2022-12-25T05:25:45.851Z,10.90
2022-12-25T05:28:12.585Z,10.90
2022-12-25T05:30:40.461Z,10.90
2022-12-25T05:33:07.287Z,10.90
2022-12-25T05:35:36.855Z,10.90
2022-12-25T05:38:03.757Z,10.90
2022-12-25T05:40:30.618Z,10.90
2022-12-25T05:42:57.386Z,10.90
2022-12-25T05:45:24.067Z,11.00
2022-12-25T05:47:50.762Z,10.90
2022-12-25T05:50:17.525Z,11.00
2022-12-25T05:52:44.267Z,11.00
2022-12-25T05:55:10.995Z,11.00
2022-12-25T05:57:37.812Z,11.00
2022-12-25T06:00:05.961Z,11.00
2022-12-25T06:02:32.902Z,11.00
2022-12-25T06:04:59.803Z,11.00
2022-12-25T06:07:26.502Z,11.00
2022-12-25T06:09:53.332Z,11.00
2022-12-25T06:12:20.126Z,11.10
2022-12-25T06:14:46.814Z,11.00
2022-12-25T06:17:13.581Z,11.00
2022-12-25T06:19:41.908Z,11.00
2022-12-25T06:22:08.700Z,10.90
2022-12-25T06:24:35.603Z,10.90
2022-12-25T06:27:02.405Z,10.90
2022-12-25T06:29:29.205Z,10.90
2022-12-25T06:31:57.361Z,10.90
2022-12-25T06:34:24.447Z,10.90
2022-12-25T06:36:51.233Z,10.90
2022-12-25T06:39:17.998Z,10.90
2022-12-25T06:41:44.990Z,10.90
2022-12-25T06:44:11.695Z,10.90
2022-12-25T06:46:38.428Z,10.90
2022-12-25T06:49:06.240Z,10.90
2022-12-25T06:51:34.198Z,10.90
2022-12-25T06:54:04.497Z,10.90
2022-12-25T06:56:31.695Z,10.90
2022-12-25T06:59:09.024Z,10.80
2022-12-25T07:01:38.252Z,10.80
2022-12-25T07:04:06.563Z,10.80
2022-12-25T07:06:33.640Z,10.80
2022-12-25T07:09:00.319Z,10.80
2022-12-25T07:11:27.055Z,10.80
2022-12-25T07:13:53.975Z,10.90
2022-12-25T07:16:20.801Z,10.80
2022-12-25T07:18:47.615Z,10.80
2022-12-25T07:21:16.029Z,10.80
2022-12-25T07:23:43.038Z,10.80
2022-12-25T07:26:10.202Z,10.80
2022-12-25T07:28:37.042Z,10.80
2022-12-25T07:31:05.150Z,10.80
2022-12-25T07:33:31.903Z,10.90
2022-12-25T07:35:58.719Z,10.90
2022-12-25T07:38:25.562Z,10.90
2022-12-25T07:40:52.613Z,10.90
2022-12-25T07:43:19.417Z,10.90
2022-12-25T07:45:46.167Z,10.90
2022-12-25T07:48:16.624Z,10.90
2022-12-25T07:50:43.921Z,10.90
2022-12-25T07:53:10.686Z,11.00
2022-12-25T07:55:37.563Z,11.00
2022-12-25T07:58:04.339Z,11.00
2022-12-25T08:00:34.109Z,11.00
2022-12-25T08:03:01.071Z,11.00
2022-12-25T08:05:28.018Z,11.00
2022-12-25T08:07:57.672Z,11.00
2022-12-25T08:10:25.111Z,11.00
2022-12-25T08:12:52.112Z,11.00
2022-12-25T08:15:19.009Z,11.00
2022-12-25T08:17:46.176Z,11.00
2022-12-25T08:20:13.600Z,11.00
2022-12-25T08:22:40.399Z,11.00
2022-12-25T08:25:07.464Z,11.00
2022-12-25T08:27:34.334Z,11.00
2022-12-25T08:30:01.047Z,11.00
2022-12-25T08:32:27.743Z,11.00
2022-12-25T08:34:54.451Z,11.00
2022-12-25T08:37:21.192Z,11.00
2022-12-25T08:39:47.895Z,11.00
2022-12-25T08:42:15.327Z,11.00
2022-12-25T08:44:42.090Z,11.00
2022-12-25T08:47:08.858Z,10.90
2022-12-25T08:49:36.732Z,10.90
2022-12-25T08:52:03.584Z,10.90
2022-12-25T08:54:32.630Z,10.90
2022-12-25T08:57:03.007Z,10.90
2022-12-25T08:59:30.129Z,10.90
2022-12-25T09:01:56.978Z,10.90
2022-12-25T09:04:23.792Z,10.90
2022-12-25T09:06:51.155Z,10.90
2022-12-25T09:09:17.916Z,10.90
2022-12-25T09:11:44.707Z,11.00
2022-12-25T09:14:13.630Z,11.00
2022-12-25T09:16:40.400Z,11.00
2022-12-25T09:19:07.343Z,11.00
2022-12-25T09:21:35.118Z,11.00
2022-12-25T09:24:01.818Z,11.00
2022-12-25T09:26:28.559Z,11.10
2022-12-25T09:28:55.336Z,11.10
2022-12-25T09:31:22.781Z,11.10
2022-12-25T09:33:50.460Z,11.00
2022-12-25T09:36:17.212Z,11.00
2022-12-25T09:38:43.927Z,11.10
2022-12-25T09:41:17.267Z,11.00
2022-12-25T09:43:59.681Z,11.10
2022-12-25T09:46:33.089Z,11.10
2022-12-25T09:49:07.517Z,11.10
2022-12-25T09:51:34.935Z,11.10
2022-12-25T09:54:12.398Z,11.10
2022-12-25T09:56:39.118Z,11.10
2022-12-25T09:59:23.200Z,11.10
2022-12-25T10:01:53.065Z,11.10
2022-12-25T10:04:40.980Z,11.10
2022-12-25T10:07:26.481Z,11.20
2022-12-25T10:10:15.148Z,11.20
2022-12-25T10:12:52.528Z,11.20
2022-12-25T10:15:31.690Z,11.30
2022-12-25T10:18:04.720Z,11.30
2022-12-25T10:20:40.599Z,11.30
2022-12-25T10:23:13.026Z,11.30
2022-12-25T10:25:39.887Z,11.40
2022-12-25T10:28:14.163Z,11.40
2022-12-25T10:30:45.347Z,11.40
2022-12-25T10:33:16.855Z,11.50
2022-12-25T10:35:44.206Z,11.40
2022-12-25T10:38:15.962Z,11.40
2022-12-25T10:41:04.134Z,11.40
2022-12-25T10:43:42.294Z,11.40
2022-12-25T10:46:13.499Z,11.40
2022-12-25T10:48:53.944Z,11.50
2022-12-25T10:51:30.631Z,11.50
2022-12-25T10:53:57.393Z,11.50
2022-12-25T10:56:24.112Z,11.50
2022-12-25T10:58:50.856Z,11.50
2022-12-25T11:01:17.659Z,11.50
2022-12-25T11:03:45.749Z,11.50
2022-12-25T11:06:23.363Z,11.60
2022-12-25T11:09:00.873Z,11.60
2022-12-25T11:11:28.391Z,11.60
2022-12-25T11:13:59.997Z,11.60
2022-12-25T11:16:30.961Z,11.60
2022-12-25T11:18:58.131Z,11.60
2022-12-25T11:21:35.018Z,11.60
2022-12-25T11:24:03.792Z,11.60
2022-12-25T11:26:35.547Z,11.60
2022-12-25T11:29:02.267Z,11.70
2022-12-25T11:31:40.719Z,11.70
2022-12-25T11:34:24.604Z,11.70
2022-12-25T11:36:52.328Z,11.80
2022-12-25T11:39:36.234Z,11.90
2022-12-25T11:42:13.185Z,12.00
2022-12-25T11:45:09.271Z,12.00
2022-12-25T11:47:55.897Z,12.10
2022-12-25T11:50:42.148Z,12.10
2022-12-25T11:53:22.573Z,12.20
2022-12-25T11:55:58.169Z,12.20
2022-12-25T11:58:50.016Z,12.20
2022-12-25T12:01:42.718Z,12.30
2022-12-25T12:04:30.923Z,12.30
2022-12-25T12:07:35.441Z,12.30
2022-12-25T12:10:15.259Z,12.30
2022-12-25T12:13:03.253Z,12.30
2022-12-25T12:15:37.224Z,12.30
2022-12-25T12:18:18.605Z,12.40
2022-12-25T12:20:45.338Z,12.40
2022-12-25T12:23:15.225Z,12.40
2022-12-25T12:25:42.558Z,12.40
2022-12-25T12:28:19.409Z,12.40
2022-12-25T12:30:56.450Z,12.40
2022-12-25T12:33:23.301Z,12.40
2022-12-25T12:35:50.175Z,12.40
2022-12-25T12:38:18.137Z,12.40
2022-12-25T12:41:01.746Z,12.40
2022-12-25T12:43:35.502Z,12.40
2022-12-25T12:46:16.081Z,12.40
2022-12-25T12:48:44.694Z,12.40
2022-12-25T12:51:31.586Z,12.40
2022-12-25T12:54:26.121Z,12.30
2022-12-25T12:57:03.032Z,12.30
2022-12-25T12:59:48.040Z,12.20
2022-12-25T13:02:43.091Z,12.20
2022-12-25T13:05:41.517Z,12.10
2022-12-25T13:08:20.546Z,12.10
2022-12-25T13:10:49.828Z,12.00
2022-12-25T13:13:26.168Z,12.00
2022-12-25T13:15:53.199Z,12.00
2022-12-25T13:18:19.956Z,12.00
2022-12-25T13:20:59.605Z,12.10
2022-12-25T13:23:39.150Z,12.00
2022-12-25T13:26:18.819Z,12.00
2022-12-25T13:28:46.910Z,12.00
2022-12-25T13:31:13.731Z,12.10
2022-12-25T13:33:41.509Z,12.00
2022-12-25T13:36:14.805Z,12.00
2022-12-25T13:38:47.980Z,12.00
2022-12-25T13:41:41.609Z,12.00
2022-12-25T13:44:21.119Z,12.00
2022-12-25T13:46:48.125Z,12.00
2022-12-25T13:49:16.584Z,12.00
2022-12-25T13:51:43.327Z,11.90
2022-12-25T13:54:13.702Z,11.90
2022-12-25T13:56:54.354Z,11.90
2022-12-25T13:59:22.660Z,11.80
2022-12-25T14:01:49.972Z,11.80
2022-12-25T14:04:19.159Z,11.80
2022-12-25T14:06:45.915Z,11.80
2022-12-25T14:09:12.785Z,11.70
2022-12-25T14:11:40.828Z,11.70
2022-12-25T14:14:22.072Z,11.70
2022-12-25T14:16:49.552Z,11.70
2022-12-25T14:19:26.886Z,11.70
2022-12-25T14:22:01.754Z,11.70
2022-12-25T14:24:28.732Z,11.70
2022-12-25T14:27:06.801Z,11.70
2022-12-25T14:29:41.771Z,11.60
2022-12-25T14:32:10.541Z,11.70
2022-12-25T14:34:37.253Z,11.70
2022-12-25T14:37:04.492Z,11.70
2022-12-25T14:39:34.803Z,11.70
2022-12-25T14:42:31.616Z,11.70
2022-12-25T14:45:03.355Z,11.70
2022-12-25T14:47:30.930Z,11.70
2022-12-25T14:49:58.221Z,11.60
2022-12-25T14:52:43.356Z,11.70
2022-12-25T14:55:21.425Z,11.60
2022-12-25T14:57:56.901Z,11.60
2022-12-25T15:00:32.009Z,11.70
2022-12-25T15:02:59.081Z,11.70
2022-12-25T15:05:39.122Z,11.60
2022-12-25T15:08:10.182Z,11.50
2022-12-25T15:13:24.889Z,11.50
2022-12-25T15:16:02.204Z,11.50
2022-12-25T15:18:34.499Z,11.50
2022-12-25T15:21:01.265Z,11.50
2022-12-25T15:23:28.377Z,11.50
2022-12-25T15:25:55.266Z,11.50
2022-12-25T15:28:22.152Z,11.40
2022-12-25T15:30:50.048Z,11.40
2022-12-25T15:33:17.987Z,11.40
2022-12-25T15:35:44.983Z,11.40
2022-12-25T15:38:12.748Z,11.30
2022-12-25T15:40:39.661Z,11.20
2022-12-25T15:43:14.460Z,11.20
2022-12-25T15:45:53.704Z,11.20
2022-12-25T15:48:20.565Z,11.10
2022-12-25T15:50:47.320Z,11.10
2022-12-25T15:53:14.346Z,11.10
2022-12-25T15:55:41.141Z,11.00
2022-12-25T15:58:12.333Z,11.00
2022-12-25T16:00:39.368Z,11.00
2022-12-25T16:03:06.278Z,10.90
2022-12-25T16:05:33.193Z,10.90
2022-12-25T16:08:00.040Z,10.90
2022-12-25T16:10:26.952Z,10.80
2022-12-25T16:12:56.498Z,10.80
2022-12-25T16:15:23.393Z,10.70
2022-12-25T16:17:50.230Z,10.70
2022-12-25T16:20:17.109Z,10.70
2022-12-25T16:22:43.962Z,10.70
2022-12-25T16:25:13.969Z,10.60
2022-12-25T16:27:40.849Z,10.60
2022-12-25T16:30:08.475Z,10.60
2022-12-25T16:32:35.429Z,10.60
2022-12-25T16:35:02.677Z,10.60
2022-12-25T16:37:29.826Z,10.60
2022-12-25T16:39:56.789Z,10.60
2022-12-25T16:42:23.695Z,10.60
2022-12-25T16:44:50.622Z,10.60
2022-12-25T16:47:17.752Z,10.60
2022-12-25T16:49:44.575Z,10.60
2022-12-25T16:52:11.325Z,10.60
2022-12-25T16:54:38.131Z,10.50
2022-12-25T16:57:04.989Z,10.60
2022-12-25T16:59:33.054Z,10.50
2022-12-25T17:02:00.110Z,10.50
2022-12-25T17:04:28.952Z,10.50
2022-12-25T17:06:55.874Z,10.50
2022-12-25T17:09:22.737Z,10.50
2022-12-25T17:11:49.763Z,10.60
2022-12-25T17:14:16.599Z,10.60
2022-12-25T17:16:43.640Z,10.60
2022-12-25T17:19:20.060Z,10.60
2022-12-25T17:21:47.383Z,10.60
2022-12-25T17:24:15.157Z,10.60
2022-12-25T17:26:43.712Z,10.60
2022-12-25T17:29:14.553Z,10.60
2022-12-25T17:31:44.045Z,10.60
2022-12-25T17:34:10.989Z,10.60
2022-12-25T17:36:38.879Z,10.60
2022-12-25T17:39:06.101Z,10.60
2022-12-25T17:41:32.988Z,10.70
2022-12-25T17:43:59.960Z,10.60
2022-12-25T17:46:28.293Z,10.60
2022-12-25T17:48:56.467Z,10.60
2022-12-25T17:51:25.335Z,10.60
2022-12-25T17:53:53.793Z,10.60
2022-12-25T17:56:21.165Z,10.50
2022-12-25T17:59:12.097Z,10.40
2022-12-25T18:01:39.365Z,10.30
2022-12-25T18:04:06.432Z,10.30
2022-12-25T18:06:34.797Z,10.20
2022-12-25T18:09:01.751Z,10.20
2022-12-25T18:11:32.628Z,10.20
2022-12-25T18:14:01.878Z,10.20
2022-12-25T18:16:30.084Z,10.10
2022-12-25T18:18:57.209Z,10.20
2022-12-25T18:21:24.130Z,10.10
2022-12-25T18:23:51.206Z,10.10
2022-12-25T18:26:18.276Z,10.00
2022-12-25T18:28:45.119Z,10.10
2022-12-25T18:31:14.893Z,10.10
2022-12-25T18:33:42.194Z,10.10
2022-12-25T18:36:10.771Z,10.00
2022-12-25T18:38:37.615Z,10.00
2022-12-25T18:41:05.443Z,10.00
2022-12-25T18:43:53.462Z,10.00
2022-12-25T18:46:22.155Z,10.00
2022-12-25T18:48:49.201Z,10.00
2022-12-25T18:51:16.062Z,10.00
2022-12-25T18:53:42.925Z,10.00
2022-12-25T18:56:11.877Z,10.00
2022-12-25T18:58:38.783Z,10.00
2022-12-25T19:01:17.131Z,10.00
2022-12-25T19:03:44.296Z,10.00
2022-12-25T19:06:20.246Z,9.90
2022-12-25T19:08:47.195Z,10.00
2022-12-25T19:11:13.984Z,9.90
2022-12-25T19:13:40.749Z,9.90
2022-12-25T19:16:07.620Z,9.90
2022-12-25T19:18:34.308Z,9.90
2022-12-25T19:21:05.053Z,9.90
2022-12-25T19:23:31.850Z,9.90
2022-12-25T19:25:58.590Z,9.80
2022-12-25T19:28:25.425Z,9.80
2022-12-25T19:30:53.879Z,9.80
2022-12-25T19:33:21.319Z,9.80
2022-12-25T19:35:49.003Z,9.70
2022-12-25T19:38:15.908Z,9.80
2022-12-25T19:41:00.146Z,9.80
2022-12-25T19:43:31.930Z,9.80
2022-12-25T19:45:58.911Z,9.80
2022-12-25T19:48:25.672Z,9.80
2022-12-25T19:50:52.634Z,9.70
2022-12-25T19:53:21.466Z,9.70
2022-12-25T19:55:48.245Z,9.70
2022-12-25T19:58:14.944Z,9.70
2022-12-25T20:00:41.873Z,9.70
2022-12-25T20:03:09.493Z,9.70
2022-12-25T20:05:36.368Z,9.60
2022-12-25T20:08:03.874Z,9.70
2022-12-25T20:10:30.629Z,9.60
2022-12-25T20:12:57.306Z,9.60
2022-12-25T20:15:24.023Z,9.60
2022-12-25T20:17:54.379Z,9.50
2022-12-25T20:20:21.122Z,9.50
2022-12-25T20:22:47.886Z,9.50
2022-12-25T20:25:14.825Z,9.50
2022-12-25T20:27:41.568Z,9.40
2022-12-25T20:30:08.682Z,9.50
2022-12-25T20:32:35.502Z,9.60
2022-12-25T20:35:02.241Z,9.60
2022-12-25T20:37:28.944Z,9.70
2022-12-25T20:39:55.721Z,9.70
2022-12-25T20:42:22.498Z,9.70
2022-12-25T20:44:49.236Z,9.70
2022-12-25T20:47:15.996Z,9.70
2022-12-25T20:49:42.695Z,9.70
2022-12-25T20:52:09.450Z,9.80
2022-12-25T20:54:36.220Z,9.80
2022-12-25T20:57:03.095Z,9.80
2022-12-25T20:59:36.905Z,9.80
2022-12-25T21:02:04.448Z,9.80
2022-12-25T21:04:31.294Z,9.80
2022-12-25T21:06:58.011Z,9.80
2022-12-25T21:09:24.777Z,9.80
2022-12-25T21:11:51.504Z,9.70
2022-12-25T21:14:18.184Z,9.80
2022-12-25T21:16:45.251Z,9.70
2022-12-25T21:19:12.463Z,9.70
2022-12-25T21:21:42.775Z,9.70
2022-12-25T21:24:10.169Z,9.70
2022-12-25T21:26:39.160Z,9.70
2022-12-25T21:29:09.064Z,9.70
2022-12-25T21:31:55.783Z,9.70
2022-12-25T21:34:22.549Z,9.70
2022-12-25T21:36:49.476Z,9.70
2022-12-25T21:39:16.347Z,9.70
2022-12-25T21:41:43.182Z,9.60
2022-12-25T21:44:10.620Z,9.60
2022-12-25T21:46:37.379Z,9.60
2022-12-25T21:49:04.230Z,9.60
2022-12-25T21:51:51.206Z,9.70
2022-12-25T21:54:19.046Z,9.70
2022-12-25T21:56:47.145Z,9.70
2022-12-25T21:59:16.076Z,9.70
2022-12-25T22:01:43.509Z,9.70
2022-12-25T22:04:10.468Z,9.70
2022-12-25T22:06:56.010Z,9.80
2022-12-25T22:09:22.882Z,9.80
2022-12-25T22:12:08.162Z,9.80
2022-12-25T22:15:02.436Z,9.70
2022-12-25T22:17:49.481Z,9.70
2022-12-25T22:20:21.775Z,9.70
2022-12-25T22:22:48.795Z,9.70
2022-12-25T22:25:16.074Z,9.70
2022-12-25T22:27:43.807Z,9.70
2022-12-25T22:30:21.260Z,9.70
2022-12-25T22:32:48.315Z,9.70
2022-12-25T22:35:15.081Z,9.70
2022-12-25T22:37:42.264Z,9.70
2022-12-25T22:40:10.068Z,9.70
2022-12-25T22:42:36.940Z,9.60
2022-12-25T22:45:04.269Z,9.60
2022-12-25T22:47:31.004Z,9.60
2022-12-25T22:49:57.820Z,9.70
2022-12-25T22:52:25.102Z,9.70
2022-12-25T22:54:51.926Z,9.70
2022-12-25T22:57:18.648Z,9.70
2022-12-25T22:59:45.417Z,9.70
2022-12-25T23:02:12.182Z,9.70
2022-12-25T23:04:39.044Z,9.70
2022-12-25T23:07:05.808Z,9.70
2022-12-25T23:09:32.590Z,9.60
2022-12-25T23:11:59.526Z,9.70
2022-12-25T23:14:38.777Z,9.60
2022-12-25T23:17:07.325Z,9.60
2022-12-25T23:19:52.480Z,9.60
2022-12-25T23:22:37.706Z,9.70
2022-12-25T23:25:27.517Z,9.70
2022-12-25T23:27:54.237Z,9.70
2022-12-25T23:30:21.092Z,9.70
2022-12-25T23:32:47.925Z,9.70
2022-12-25T23:35:14.670Z,9.70
2022-12-25T23:37:41.331Z,9.70
2022-12-25T23:40:09.010Z,9.70
2022-12-25T23:42:35.767Z,9.70
2022-12-25T23:45:02.464Z,9.70
2022-12-25T23:47:29.227Z,9.70
2022-12-25T23:49:55.911Z,9.70
2022-12-25T23:52:22.586Z,9.70
2022-12-25T23:54:49.280Z,9.70
2022-12-25T23:57:15.973Z,9.70
2022-12-25T23:59:42.733Z,9.70
